createdAt,value
2024-02-11T00:00:38.807Z,9.43
2024-02-11T00:04:40.801Z,9.42
2024-02-11T00:08:42.791Z,9.52
2024-02-11T00:12:44.702Z,9.41
2024-02-11T00:16:48.217Z,9.39
2024-02-11T00:20:50.185Z,9.36
2024-02-11T00:24:52.443Z,9.55
2024-02-11T00:28:54.053Z,9.41
2024-02-11T00:32:57.071Z,9.37
2024-02-11T00:36:59.118Z,9.33
2024-02-11T00:41:01.013Z,9.30
2024-02-11T00:45:02.942Z,9.32
2024-02-11T00:49:05.993Z,9.37
2024-02-11T00:53:08.302Z,9.32
2024-02-11T00:57:10.344Z,9.55
2024-02-11T01:01:12.701Z,9.73
2024-02-11T01:05:15.906Z,9.73
2024-02-11T01:09:17.626Z,9.52
2024-02-11T01:13:19.463Z,9.49
2024-02-11T01:17:21.273Z,9.30
2024-02-11T01:21:24.502Z,9.40
2024-02-11T01:25:26.577Z,9.28
2024-02-11T01:29:28.394Z,9.42
2024-02-11T01:33:30.056Z,9.57
2024-02-11T01:37:35.894Z,9.65
2024-02-11T01:41:38.224Z,9.50
2024-02-11T01:45:39.891Z,9.47
2024-02-11T01:49:41.707Z,9.36
2024-02-11T01:53:46.490Z,9.48
2024-02-11T01:57:51.280Z,9.32
2024-02-11T02:01:53.438Z,9.43
2024-02-11T02:05:56.105Z,9.35
2024-02-11T02:10:00.797Z,9.21
2024-02-11T02:14:02.780Z,9.36
2024-02-11T02:18:05.209Z,9.17
2024-02-11T02:22:08.239Z,9.20
2024-02-11T02:26:10.281Z,9.42
2024-02-11T02:30:13.716Z,9.51
2024-02-11T02:34:15.695Z,9.39
2024-02-11T02:38:19.763Z,9.33
2024-02-11T02:42:21.730Z,9.28
2024-02-11T02:46:23.832Z,9.40
2024-02-11T02:50:25.427Z,9.59
2024-02-11T02:54:28.418Z,9.45
2024-02-11T02:58:30.048Z,9.60
2024-02-11T03:02:32.469Z,9.71
2024-02-11T03:06:34.172Z,9.53
2024-02-11T03:10:37.238Z,9.35
2024-02-11T03:14:38.954Z,9.25
2024-02-11T03:18:40.602Z,9.06
2024-02-11T03:22:43.768Z,9.02
2024-02-11T03:26:46.751Z,9.19
2024-02-11T03:30:48.416Z,9.17
2024-02-11T03:34:50.100Z,9.20
2024-02-11T03:38:51.749Z,9.26
2024-02-11T03:42:54.760Z,9.16
2024-02-11T03:46:57.601Z,9.31
2024-02-11T03:50:59.523Z,9.28
2024-02-11T03:55:02.063Z,9.50
2024-02-11T03:59:09.096Z,9.56
2024-02-11T04:03:10.912Z,9.63
2024-02-11T04:07:12.494Z,9.62
2024-02-11T04:11:14.156Z,9.84
2024-02-11T04:15:17.243Z,9.84
2024-02-11T04:19:19.024Z,9.79
2024-02-11T04:23:20.749Z,9.74
2024-02-11T04:27:22.513Z,9.75
2024-02-11T04:31:25.626Z,9.71
2024-02-11T04:35:27.611Z,9.64
2024-02-11T04:39:29.315Z,9.53
2024-02-11T04:43:30.950Z,9.55
2024-02-11T04:47:34.053Z,9.44
2024-02-11T04:51:35.733Z,9.40
2024-02-11T04:55:37.489Z,9.47
2024-02-11T04:59:39.220Z,9.38
2024-02-11T05:03:42.171Z,9.42
2024-02-11T05:07:45.046Z,9.38
2024-02-11T05:11:46.707Z,9.32
2024-02-11T05:15:48.461Z,9.24
2024-02-11T05:19:53.526Z,8.89
2024-02-11T05:23:57.357Z,8.53
2024-02-11T05:28:01.463Z,8.27
2024-02-11T05:32:03.558Z,8.05
2024-02-11T05:36:07.333Z,7.91
2024-02-11T05:40:09.814Z,7.82
2024-02-11T05:44:11.523Z,7.83
2024-02-11T05:48:13.908Z,7.87
2024-02-11T05:52:17.164Z,7.71
2024-02-11T05:56:19.123Z,7.73
2024-02-11T06:00:22.716Z,7.68
2024-02-11T06:04:24.329Z,7.73
2024-02-11T06:08:27.513Z,7.70
2024-02-11T06:12:29.457Z,7.70
2024-02-11T06:16:32.030Z,7.74
2024-02-11T06:20:33.683Z,7.68
2024-02-11T06:24:36.688Z,7.63
2024-02-11T06:28:38.886Z,7.64
2024-02-11T06:32:41.151Z,7.65
2024-02-11T06:36:42.959Z,7.71
2024-02-11T06:40:47.716Z,7.69
2024-02-11T06:44:49.358Z,7.70
2024-02-11T06:48:51.320Z,7.71
2024-02-11T06:52:53.125Z,7.72
2024-02-11T06:56:56.200Z,7.56
2024-02-11T07:00:57.840Z,7.59
2024-02-11T07:04:59.647Z,7.60
2024-02-11T07:09:01.347Z,7.57
2024-02-11T07:13:04.644Z,7.56
2024-02-11T07:17:06.262Z,7.45
2024-02-11T07:21:07.846Z,7.55
2024-02-11T07:25:09.951Z,7.59
2024-02-11T07:29:13.120Z,7.65
2024-02-11T07:33:15.177Z,7.63
2024-02-11T07:37:16.875Z,7.70
2024-02-11T07:41:18.621Z,7.69
2024-02-11T07:45:21.833Z,7.72
2024-02-11T07:49:23.767Z,7.71
2024-02-11T07:53:25.739Z,7.82
2024-02-11T07:57:27.601Z,7.76
2024-02-11T08:01:33.497Z,7.84
2024-02-11T08:05:36.128Z,7.88
2024-02-11T08:09:37.987Z,7.88
2024-02-11T08:13:39.783Z,7.87
2024-02-11T08:17:43.107Z,7.91
2024-02-11T08:21:45.147Z,7.96
2024-02-11T08:25:46.877Z,8.04
2024-02-11T08:29:48.722Z,8.13
2024-02-11T08:33:51.745Z,8.15
2024-02-11T08:37:54.243Z,8.11
2024-02-11T08:41:57.080Z,8.30
2024-02-11T08:45:58.784Z,8.20
2024-02-11T08:50:02.208Z,8.14
2024-02-11T08:54:04.004Z,8.10
2024-02-11T08:58:05.807Z,8.42
2024-02-11T09:02:07.545Z,8.41
2024-02-11T09:06:10.725Z,8.42
2024-02-11T09:10:12.614Z,8.45
2024-02-11T09:14:14.338Z,8.53
2024-02-11T09:18:18.660Z,8.56
2024-02-11T09:22:21.844Z,8.65
2024-02-11T09:26:23.620Z,8.79
2024-02-11T09:30:25.637Z,8.77
2024-02-11T09:34:27.311Z,8.84
2024-02-11T09:38:30.697Z,8.93
2024-02-11T09:42:32.425Z,8.87
2024-02-11T09:46:35.428Z,8.93
2024-02-11T09:50:39.102Z,8.95
2024-02-11T09:54:45.768Z,9.05
2024-02-11T09:58:47.704Z,8.94
2024-02-11T10:02:50.624Z,9.05
2024-02-11T10:06:52.972Z,9.04
2024-02-11T10:10:56.780Z,9.11
2024-02-11T10:14:59.182Z,9.34
2024-02-11T10:19:01.008Z,9.43
2024-02-11T10:23:03.075Z,9.55
2024-02-11T10:27:08.904Z,9.47
2024-02-11T10:31:10.985Z,9.61
2024-02-11T10:35:14.083Z,9.75
2024-02-11T10:39:15.812Z,9.91
2024-02-11T10:43:19.278Z,10.01
2024-02-11T10:47:21.197Z,9.95
2024-02-11T10:51:28.672Z,10.17
2024-02-11T10:55:34.413Z,10.19
2024-02-11T10:59:38.216Z,10.23
2024-02-11T11:03:41.692Z,10.15
2024-02-11T11:07:45.403Z,10.29
2024-02-11T11:11:47.316Z,10.21
2024-02-11T11:15:51.751Z,10.28
2024-02-11T11:19:58.011Z,10.17
2024-02-11T11:24:00.365Z,10.61
2024-02-11T11:28:11.635Z,11.51
2024-02-11T11:32:20.214Z,11.72
2024-02-11T11:36:27.755Z,11.60
2024-02-11T11:40:29.875Z,11.50
2024-02-11T11:44:31.509Z,11.12
2024-02-11T11:48:34.823Z,11.05
2024-02-11T11:52:36.721Z,10.82
2024-02-11T11:56:38.636Z,10.86
2024-02-11T12:00:41.443Z,10.81
2024-02-11T12:04:45.038Z,10.80
2024-02-11T12:08:46.917Z,10.74
2024-02-11T12:12:48.642Z,10.69
2024-02-11T12:16:50.497Z,10.69
2024-02-11T12:20:55.051Z,10.74
2024-02-11T12:24:56.719Z,10.76
2024-02-11T12:28:58.523Z,10.63
2024-02-11T12:33:00.224Z,10.95
2024-02-11T12:37:04.158Z,11.48
2024-02-11T12:41:06.162Z,11.90
2024-02-11T12:45:10.580Z,11.71
2024-02-11T12:49:13.610Z,11.63
2024-02-11T12:53:17.002Z,11.53
2024-02-11T12:57:18.846Z,11.29
2024-02-11T13:01:23.572Z,11.35
2024-02-11T13:05:27.900Z,11.39
2024-02-11T13:09:32.081Z,11.46
2024-02-11T13:13:33.812Z,11.81
2024-02-11T13:17:35.562Z,11.74
2024-02-11T13:21:37.366Z,11.61
2024-02-11T13:25:40.578Z,11.46
2024-02-11T13:29:42.367Z,11.28
2024-02-11T13:33:44.130Z,11.06
2024-02-11T13:37:45.947Z,10.98
2024-02-11T13:41:48.997Z,10.95
2024-02-11T13:45:50.648Z,10.84
2024-02-11T13:49:52.591Z,10.93
2024-02-11T13:53:54.498Z,10.80
2024-02-11T13:57:57.595Z,10.92
2024-02-11T14:01:59.416Z,10.95
2024-02-11T14:06:01.245Z,10.92
2024-02-11T14:10:03.189Z,11.02
2024-02-11T14:14:06.730Z,11.07
2024-02-11T14:18:08.509Z,11.20
2024-02-11T14:22:10.264Z,11.50
2024-02-11T14:26:13.709Z,11.31
2024-02-11T14:30:18.419Z,11.14
2024-02-11T14:34:20.380Z,10.93
2024-02-11T14:38:22.147Z,10.70
2024-02-11T14:42:24.033Z,10.53
2024-02-11T14:46:27.302Z,10.56
2024-02-11T14:50:29.046Z,10.45
2024-02-11T14:54:30.808Z,10.49
2024-02-11T14:58:33.236Z,10.37
2024-02-11T15:02:36.270Z,10.34
2024-02-11T15:06:38.255Z,10.34
2024-02-11T15:10:40.603Z,10.32
2024-02-11T15:14:45.321Z,10.19
2024-02-11T15:18:49.919Z,10.02
2024-02-11T15:22:51.788Z,10.27
2024-02-11T15:26:53.585Z,10.25
2024-02-11T15:30:55.911Z,10.27
2024-02-11T15:34:59.233Z,10.18
2024-02-11T15:39:00.939Z,10.06
2024-02-11T15:43:02.824Z,10.13
2024-02-11T15:47:04.974Z,10.05
2024-02-11T15:51:10.431Z,10.01
2024-02-11T15:55:15.186Z,9.96
2024-02-11T15:59:16.910Z,9.91
2024-02-11T16:03:18.636Z,9.80
2024-02-11T16:07:22.136Z,9.80
2024-02-11T16:11:24.172Z,9.82
2024-02-11T16:15:26.045Z,9.75
2024-02-11T16:19:30.417Z,9.69
2024-02-11T16:23:35.434Z,9.63
2024-02-11T16:27:46.191Z,9.56
2024-02-11T16:32:20.310Z,9.45
2024-02-11T16:36:22.234Z,9.45
2024-02-11T16:40:30.852Z,9.39
2024-02-11T16:44:37.220Z,9.33
2024-02-11T16:48:39.178Z,9.39
2024-02-11T16:52:41.472Z,9.28
2024-02-11T16:56:49.821Z,9.28
2024-02-11T17:00:54.694Z,9.25
2024-02-11T17:04:56.802Z,9.29
2024-02-11T17:09:07.591Z,9.25
2024-02-11T17:13:13.889Z,9.17
2024-02-11T17:17:16.268Z,9.09
2024-02-11T17:21:24.165Z,9.10
2024-02-11T17:25:26.400Z,9.12
2024-02-11T17:29:29.385Z,9.06
2024-02-11T17:33:35.647Z,9.08
2024-02-11T17:37:48.763Z,9.05
2024-02-11T17:41:50.686Z,9.09
2024-02-11T17:45:53.725Z,9.08
2024-02-11T17:49:55.891Z,9.05
2024-02-11T17:53:57.690Z,9.05
2024-02-11T17:57:59.335Z,9.14
2024-02-11T18:02:05.264Z,9.15
2024-02-11T18:06:07.994Z,9.01
2024-02-11T18:10:10.796Z,8.96
2024-02-11T18:14:15.363Z,8.95
2024-02-11T18:18:20.627Z,8.90
2024-02-11T18:22:22.300Z,8.91
2024-02-11T18:26:24.063Z,8.82
2024-02-11T18:30:25.775Z,8.75
2024-02-11T18:34:28.770Z,8.80
2024-02-11T18:38:32.694Z,8.68
2024-02-11T18:42:34.543Z,8.66
2024-02-11T18:46:36.591Z,8.69
2024-02-11T18:50:39.815Z,8.69
2024-02-11T18:54:41.501Z,8.73
2024-02-11T18:58:43.431Z,8.82
2024-02-11T19:02:46.365Z,8.75
2024-02-11T19:06:49.811Z,8.84
2024-02-11T19:10:51.817Z,8.75
2024-02-11T19:14:53.751Z,8.71
2024-02-11T19:18:55.874Z,8.74
2024-02-11T19:22:58.980Z,8.76
2024-02-11T19:27:01.630Z,8.63
2024-02-11T19:31:03.312Z,8.37
2024-02-11T19:35:05.549Z,8.66
2024-02-11T19:39:08.486Z,8.59
2024-02-11T19:43:10.077Z,8.56
2024-02-11T19:47:12.946Z,8.63
2024-02-11T19:51:15.009Z,8.58
2024-02-11T19:55:18.284Z,8.56
2024-02-11T19:59:20.170Z,8.61
2024-02-11T20:03:22.112Z,8.61
2024-02-11T20:07:23.928Z,8.56
2024-02-11T20:11:29.911Z,8.49
2024-02-11T20:15:31.902Z,8.53
2024-02-11T20:19:33.902Z,8.51
2024-02-11T20:23:37.890Z,8.46
2024-02-11T20:27:40.905Z,8.43
2024-02-11T20:31:46.861Z,8.40
2024-02-11T20:35:48.495Z,8.55
2024-02-11T20:39:50.590Z,8.47
2024-02-11T20:43:53.674Z,8.56
2024-02-11T20:47:55.805Z,8.45
2024-02-11T20:51:57.438Z,8.39
2024-02-11T20:55:59.603Z,8.42
2024-02-11T21:00:02.765Z,8.33
2024-02-11T21:04:04.575Z,8.22
2024-02-11T21:08:07.133Z,8.07
2024-02-11T21:12:09.501Z,8.02
2024-02-11T21:16:12.554Z,7.90
2024-02-11T21:20:14.661Z,7.95
2024-02-11T21:24:16.470Z,7.84
2024-02-11T21:28:18.151Z,7.86
2024-02-11T21:32:21.376Z,7.84
2024-02-11T21:36:23.576Z,7.85
2024-02-11T21:40:25.404Z,7.80
2024-02-11T21:44:27.566Z,7.76
2024-02-11T21:48:30.986Z,7.77
2024-02-11T21:52:32.922Z,7.80
2024-02-11T21:56:34.799Z,7.73
2024-02-11T22:00:36.924Z,7.79
2024-02-11T22:04:39.985Z,7.72
2024-02-11T22:08:41.898Z,7.79
2024-02-11T22:12:45.206Z,7.76
2024-02-11T22:16:46.866Z,7.75
2024-02-11T22:20:49.907Z,7.66
2024-02-11T22:24:51.614Z,7.58
2024-02-11T22:28:53.355Z,7.44
2024-02-11T22:32:55.129Z,7.46
2024-02-11T22:36:58.497Z,7.24
2024-02-11T22:41:06.845Z,7.14
2024-02-11T22:45:08.829Z,7.04
2024-02-11T22:49:10.553Z,6.81
2024-02-11T22:53:14.029Z,6.73
2024-02-11T22:57:16.449Z,6.65
2024-02-11T23:01:18.109Z,6.64
2024-02-11T23:05:20.386Z,6.70
2024-02-11T23:09:23.623Z,6.72
2024-02-11T23:13:25.306Z,6.71
2024-02-11T23:17:27.074Z,6.77
2024-02-11T23:21:28.867Z,6.86
2024-02-11T23:25:31.783Z,6.90
2024-02-11T23:29:34.103Z,6.98
2024-02-11T23:33:36.144Z,6.94
2024-02-11T23:37:38.268Z,7.01
2024-02-11T23:41:41.555Z,6.96
2024-02-11T23:45:43.343Z,6.97
2024-02-11T23:49:45.019Z,7.10
2024-02-11T23:53:49.096Z,6.94
2024-02-11T23:57:53.087Z,6.88
